createdAt,value
2022-10-19T05:02:22.264Z,12.48
2022-10-19T05:04:51.497Z,12.51
2022-10-19T05:07:20.549Z,12.55
2022-10-19T05:09:49.718Z,12.57
2022-10-19T05:12:18.523Z,12.58
2022-10-19T05:14:46.936Z,12.59
2022-10-19T05:17:15.284Z,12.64
2022-10-19T05:19:44.244Z,12.65
2022-10-19T05:22:12.604Z,12.64
2022-10-19T05:24:41.791Z,12.69
2022-10-19T05:27:10.026Z,12.72
2022-10-19T05:29:39.304Z,12.73
2022-10-19T05:32:08.775Z,12.73
2022-10-19T05:34:37.790Z,12.70
2022-10-19T05:37:06.792Z,12.64
2022-10-19T05:39:35.926Z,12.61
2022-10-19T05:42:04.804Z,12.57
2022-10-19T05:44:33.766Z,12.52
2022-10-19T05:47:02.759Z,12.49
2022-10-19T05:49:32.188Z,12.52
2022-10-19T05:52:01.481Z,12.53
2022-10-19T05:54:30.609Z,12.58
2022-10-19T05:56:59.774Z,12.60
2022-10-19T05:59:29.009Z,12.59
2022-10-19T06:01:58.130Z,12.51
2022-10-19T06:04:27.391Z,12.44
2022-10-19T06:06:56.480Z,12.39
2022-10-19T06:09:25.838Z,12.37
2022-10-19T06:11:54.455Z,12.37
2022-10-19T06:14:23.450Z,12.35
2022-10-19T06:16:52.554Z,12.31
2022-10-19T06:19:21.354Z,12.30
2022-10-19T06:21:50.146Z,12.32
2022-10-19T06:24:19.084Z,12.32
2022-10-19T06:26:47.790Z,12.33
2022-10-19T06:29:16.753Z,12.40
2022-10-19T06:31:46.988Z,12.43
2022-10-19T06:34:16.089Z,12.40
2022-10-19T06:36:44.937Z,12.39
2022-10-19T06:39:15.490Z,12.41
2022-10-19T06:41:45.246Z,12.46
2022-10-19T06:44:21.042Z,12.52
2022-10-19T06:46:50.013Z,12.54
2022-10-19T06:49:18.402Z,12.62
2022-10-19T06:51:47.316Z,12.71
2022-10-19T06:54:16.434Z,12.76
2022-10-19T06:56:45.365Z,12.78
2022-10-19T06:59:14.989Z,12.83
2022-10-19T07:01:44.448Z,12.87
2022-10-19T07:04:13.557Z,12.94
2022-10-19T07:06:42.665Z,12.91
2022-10-19T07:09:12.090Z,12.94
2022-10-19T07:11:45.763Z,12.94
2022-10-19T07:14:15.783Z,12.91
2022-10-19T07:16:44.579Z,12.86
2022-10-19T07:19:14.300Z,12.76
2022-10-19T07:21:44.715Z,12.74
2022-10-19T07:24:14.048Z,12.76
2022-10-19T07:26:42.652Z,12.76
2022-10-19T07:29:11.781Z,12.78
2022-10-19T07:31:41.868Z,12.78
2022-10-19T07:34:12.622Z,12.71
2022-10-19T07:36:45.589Z,12.63
2022-10-19T07:39:17.112Z,12.54
2022-10-19T07:41:46.253Z,12.46
2022-10-19T07:44:15.879Z,12.41
2022-10-19T07:46:44.999Z,12.34
2022-10-19T07:49:17.160Z,12.27
2022-10-19T07:51:47.695Z,12.26
2022-10-19T07:54:16.847Z,12.26
2022-10-19T07:56:46.003Z,12.28
2022-10-19T07:59:16.981Z,12.29
2022-10-19T08:01:46.063Z,12.30
2022-10-19T08:07:03.944Z,12.33
2022-10-19T08:09:51.910Z,12.22
2022-10-19T08:12:21.431Z,12.12
2022-10-19T08:14:52.099Z,12.07
2022-10-19T08:17:24.981Z,12.02
2022-10-19T08:19:53.864Z,11.99
2022-10-19T08:22:23.140Z,11.99
2022-10-19T08:24:52.239Z,12.02
2022-10-19T08:27:21.535Z,12.05
2022-10-19T08:29:52.025Z,12.06
2022-10-19T08:32:20.542Z,12.09
2022-10-19T08:34:49.515Z,12.16
2022-10-19T08:37:26.391Z,12.25
2022-10-19T08:40:11.559Z,12.35
2022-10-19T08:42:56.219Z,12.39
2022-10-19T08:45:31.244Z,12.46
2022-10-19T08:48:04.193Z,12.54
2022-10-19T08:50:32.504Z,12.61
2022-10-19T08:53:02.813Z,12.72
2022-10-19T08:55:59.690Z,12.80
2022-10-19T08:58:40.187Z,12.82
2022-10-19T09:01:19.299Z,12.81
2022-10-19T09:03:56.316Z,12.70
2022-10-19T09:06:38.141Z,12.63
2022-10-19T09:09:07.184Z,12.61
2022-10-19T09:11:39.796Z,12.58
2022-10-19T09:14:17.076Z,12.58
2022-10-19T09:16:46.924Z,12.60
2022-10-19T09:19:30.184Z,12.60
2022-10-19T09:22:03.485Z,12.59
2022-10-19T09:24:51.266Z,12.58
2022-10-19T09:27:22.070Z,12.55
2022-10-19T09:29:55.328Z,12.53
2022-10-19T09:32:38.755Z,12.50
2022-10-19T09:35:21.090Z,12.46
2022-10-19T09:37:51.295Z,12.43
2022-10-19T09:40:28.601Z,12.43
2022-10-19T09:42:59.107Z,12.39
2022-10-19T09:45:35.388Z,12.34
2022-10-19T09:48:12.850Z,12.32
2022-10-19T09:50:44.706Z,12.30
2022-10-19T09:53:21.929Z,12.34
2022-10-19T09:56:04.176Z,12.39
2022-10-19T09:58:33.796Z,12.43
2022-10-19T10:01:03.514Z,12.55
2022-10-19T10:03:35.837Z,12.73
2022-10-19T10:06:06.957Z,12.86
2022-10-19T10:08:39.751Z,12.86
2022-10-19T10:11:35.104Z,12.86
2022-10-19T10:14:23.240Z,12.84
2022-10-19T10:16:56.354Z,12.84
2022-10-19T10:19:29.503Z,12.82
2022-10-19T10:21:59.077Z,12.72
2022-10-19T10:24:29.636Z,12.64
2022-10-19T10:27:02.981Z,12.62
2022-10-19T10:29:35.459Z,12.59
2022-10-19T10:32:04.442Z,12.64
2022-10-19T10:35:03.224Z,12.71
2022-10-19T10:37:24.967Z,12.89
2022-10-19T10:39:56.798Z,13.00
2022-10-19T10:42:42.535Z,13.08
2022-10-19T10:45:19.956Z,13.11
2022-10-19T10:47:49.567Z,13.13
2022-10-19T10:50:37.385Z,13.19
2022-10-19T10:53:08.186Z,13.25
2022-10-19T10:55:37.331Z,13.23
2022-10-19T10:58:25.410Z,13.25
2022-10-19T11:01:02.837Z,13.16
2022-10-19T11:03:36.808Z,12.90
2022-10-19T11:06:06.122Z,12.63
2022-10-19T11:08:43.020Z,12.42
2022-10-19T11:11:16.518Z,12.29
2022-10-19T11:13:52.249Z,12.27
2022-10-19T11:16:30.195Z,12.31
2022-10-19T11:19:38.081Z,12.26
2022-10-19T11:22:07.109Z,12.19
2022-10-19T11:24:38.654Z,12.14
2022-10-19T11:27:17.004Z,12.10
2022-10-19T11:30:02.944Z,12.04
2022-10-19T11:32:50.490Z,12.02
2022-10-19T11:35:37.742Z,12.00
2022-10-19T11:38:25.110Z,11.93
2022-10-19T11:41:16.978Z,11.86
2022-10-19T11:43:57.167Z,11.87
2022-10-19T11:46:28.001Z,11.94
2022-10-19T11:48:56.580Z,12.01
2022-10-19T11:51:40.779Z,12.14
2022-10-19T11:54:17.193Z,12.29
2022-10-19T11:57:06.440Z,12.43
2022-10-19T11:59:43.868Z,12.42
2022-10-19T12:02:24.956Z,12.28
2022-10-19T12:04:53.596Z,12.11
2022-10-19T12:07:33.489Z,11.93
2022-10-19T12:10:22.913Z,11.79
2022-10-19T12:12:54.311Z,11.76
2022-10-19T12:15:24.203Z,11.79
2022-10-19T12:17:55.076Z,11.79
2022-10-19T12:20:30.087Z,11.82
2022-10-19T12:22:59.773Z,11.76
2022-10-19T12:25:28.371Z,11.70
2022-10-19T12:27:57.240Z,11.67
2022-10-19T12:30:25.822Z,11.67
2022-10-19T12:33:07.765Z,11.67
2022-10-19T12:35:54.996Z,11.73
2022-10-19T12:38:30.709Z,11.74
2022-10-19T12:41:32.027Z,11.74
2022-10-19T12:47:01.184Z,11.61
2022-10-19T12:49:29.540Z,11.63
2022-10-19T12:52:01.631Z,11.66
2022-10-19T12:54:31.958Z,11.67
2022-10-19T12:57:02.060Z,11.71
2022-10-19T12:59:32.452Z,11.72
2022-10-19T13:02:03.027Z,11.67
2022-10-19T13:04:33.138Z,11.60
2022-10-19T13:07:06.546Z,11.60
2022-10-19T13:09:37.378Z,11.69
2022-10-19T13:12:19.580Z,11.72
2022-10-19T13:14:54.175Z,11.77
2022-10-19T13:17:35.185Z,11.79
2022-10-19T13:20:16.925Z,11.80
2022-10-19T13:22:46.206Z,11.83
2022-10-19T13:25:31.645Z,11.89
2022-10-19T13:28:06.836Z,11.90
2022-10-19T13:30:39.260Z,11.91
2022-10-19T13:33:26.615Z,11.93
2022-10-19T13:36:05.005Z,11.92
2022-10-19T13:41:15.527Z,11.81
2022-10-19T13:43:44.397Z,11.80
2022-10-19T13:46:26.654Z,11.78
2022-10-19T13:49:14.187Z,11.77
2022-10-19T13:51:58.692Z,11.77
2022-10-19T13:54:27.264Z,11.69
2022-10-19T13:57:15.542Z,11.64
2022-10-19T13:59:57.406Z,11.60
2022-10-19T14:02:46.562Z,11.57
2022-10-19T14:05:28.025Z,11.50
2022-10-19T14:08:15.057Z,11.39
2022-10-19T14:11:00.149Z,11.21
2022-10-19T14:13:31.012Z,11.09
2022-10-19T14:16:03.806Z,11.02
2022-10-19T14:18:36.229Z,10.93
2022-10-19T14:21:06.484Z,10.86
2022-10-19T14:23:42.326Z,10.84
2022-10-19T14:26:15.800Z,10.83
2022-10-19T14:28:44.884Z,10.89
2022-10-19T14:31:20.221Z,11.03
2022-10-19T14:33:52.288Z,11.17
2022-10-19T14:36:23.140Z,11.25
2022-10-19T14:38:55.329Z,11.29
2022-10-19T14:41:31.340Z,11.24
2022-10-19T14:44:01.122Z,11.17
2022-10-19T14:46:34.072Z,11.07
2022-10-19T14:49:04.459Z,10.98
2022-10-19T14:51:39.538Z,10.91
2022-10-19T14:54:29.735Z,10.84
2022-10-19T14:56:59.017Z,10.76
2022-10-19T14:59:31.863Z,10.69
2022-10-19T15:02:02.662Z,10.61
2022-10-19T15:04:37.840Z,10.51
2022-10-19T15:07:16.503Z,10.40
2022-10-19T15:09:50.939Z,10.32
2022-10-19T15:12:23.027Z,10.23
2022-10-19T15:14:52.367Z,10.16
2022-10-19T15:17:25.650Z,10.06
2022-10-19T15:19:56.661Z,10.00
2022-10-19T15:22:31.943Z,9.92
2022-10-19T15:25:03.387Z,9.86
2022-10-19T15:27:36.369Z,9.81
2022-10-19T15:30:07.146Z,9.76
2022-10-19T15:32:37.719Z,9.72
2022-10-19T15:35:11.990Z,9.68
2022-10-19T15:37:43.477Z,9.66
2022-10-19T15:40:14.625Z,9.64
2022-10-19T15:42:49.696Z,9.62
2022-10-19T15:45:38.633Z,9.56
2022-10-19T15:48:13.816Z,9.49
2022-10-19T15:50:49.151Z,9.46
2022-10-19T15:53:18.501Z,9.45
2022-10-19T15:55:47.452Z,9.43
2022-10-19T15:58:16.930Z,9.39
2022-10-19T16:00:46.064Z,9.36
2022-10-19T16:03:14.893Z,9.34
2022-10-19T16:05:43.864Z,9.33
2022-10-19T16:08:13.078Z,9.31
2022-10-19T16:10:41.654Z,9.28
2022-10-19T16:13:11.146Z,9.25
2022-10-19T16:15:40.106Z,9.23
2022-10-19T16:18:10.799Z,9.20
2022-10-19T16:20:40.873Z,9.18
2022-10-19T16:23:10.257Z,9.16
2022-10-19T16:25:39.308Z,9.15
2022-10-19T16:28:08.597Z,9.12
2022-10-19T16:30:37.759Z,9.09
2022-10-19T16:33:06.498Z,9.07
2022-10-19T16:35:35.222Z,9.03
2022-10-19T16:38:04.204Z,8.99
2022-10-19T16:40:33.375Z,8.97
2022-10-19T16:43:02.283Z,8.94
2022-10-19T16:45:32.175Z,8.88
2022-10-19T16:48:01.351Z,8.86
2022-10-19T16:50:30.577Z,8.83
2022-10-19T16:53:07.267Z,8.77
2022-10-19T16:55:37.098Z,8.75
2022-10-19T16:58:06.071Z,8.72
2022-10-19T17:00:36.236Z,8.71
2022-10-19T17:03:05.262Z,8.70
2022-10-19T17:05:38.077Z,8.67
2022-10-19T17:08:07.724Z,8.63
2022-10-19T17:10:36.668Z,8.57
2022-10-19T17:13:05.613Z,8.52
2022-10-19T17:15:42.914Z,8.50
2022-10-19T17:18:12.667Z,8.50
2022-10-19T17:20:41.776Z,8.47
2022-10-19T17:23:10.926Z,8.46
2022-10-19T17:25:46.902Z,8.39
2022-10-19T17:28:15.867Z,8.37
2022-10-19T17:30:45.294Z,8.40
2022-10-19T17:33:13.575Z,8.36
2022-10-19T17:35:42.425Z,8.35
2022-10-19T17:38:11.311Z,8.36
2022-10-19T17:40:40.410Z,8.38
2022-10-19T17:43:09.815Z,8.39
2022-10-19T17:45:39.300Z,8.40
2022-10-19T17:48:09.015Z,8.37
2022-10-19T17:50:38.023Z,8.39
2022-10-19T17:53:07.145Z,8.41
2022-10-19T17:55:37.328Z,8.45
2022-10-19T17:58:06.613Z,8.45
2022-10-19T18:00:35.520Z,8.41
2022-10-19T18:03:04.160Z,8.40
2022-10-19T18:05:32.476Z,8.42
2022-10-19T18:08:01.610Z,8.46
2022-10-19T18:10:30.594Z,8.52
2022-10-19T18:12:59.637Z,8.59
2022-10-19T18:15:28.163Z,8.60
2022-10-19T18:17:56.764Z,8.64
2022-10-19T18:20:25.850Z,8.69
2022-10-19T18:22:54.419Z,8.74
2022-10-19T18:25:36.145Z,8.79
2022-10-19T18:28:13.725Z,8.81
2022-10-19T18:30:45.178Z,8.82
2022-10-19T18:33:13.712Z,8.82
2022-10-19T18:35:42.688Z,8.76
2022-10-19T18:38:11.000Z,8.74
2022-10-19T18:40:39.870Z,8.72
2022-10-19T18:43:08.835Z,8.69
2022-10-19T18:45:37.513Z,8.70
2022-10-19T18:48:06.883Z,8.74
2022-10-19T18:50:35.793Z,8.66
2022-10-19T18:53:05.022Z,8.57
2022-10-19T18:55:33.917Z,8.50
2022-10-19T18:58:02.499Z,8.46
2022-10-19T19:00:32.008Z,8.53
2022-10-19T19:03:01.033Z,8.62
2022-10-19T19:05:29.346Z,8.68
2022-10-19T19:07:58.153Z,8.71
2022-10-19T19:10:27.289Z,8.66
2022-10-19T19:12:55.835Z,8.59
2022-10-19T19:15:24.545Z,8.55
2022-10-19T19:17:55.033Z,8.53
2022-10-19T19:20:24.101Z,8.48
2022-10-19T19:22:52.646Z,8.45
2022-10-19T19:25:21.832Z,8.41
2022-10-19T19:27:50.134Z,8.37
2022-10-19T19:30:18.767Z,8.30
2022-10-19T19:32:47.657Z,8.26
2022-10-19T19:35:16.598Z,8.21
2022-10-19T19:37:45.238Z,8.18
2022-10-19T19:40:13.649Z,8.15
2022-10-19T19:42:42.377Z,8.12
2022-10-19T19:45:11.069Z,8.10
2022-10-19T19:47:39.628Z,8.11
2022-10-19T19:50:09.036Z,8.12
2022-10-19T19:52:40.391Z,8.13
2022-10-19T19:55:09.913Z,8.17
2022-10-19T19:57:38.745Z,8.22
2022-10-19T20:00:08.383Z,8.25
2022-10-19T20:02:39.983Z,8.27
2022-10-19T20:05:09.500Z,8.28
2022-10-19T20:07:38.665Z,8.27
2022-10-19T20:10:08.289Z,8.26
2022-10-19T20:12:37.773Z,8.29
2022-10-19T20:15:06.983Z,8.31
2022-10-19T20:17:36.337Z,8.32
2022-10-19T20:20:06.715Z,8.35
2022-10-19T20:22:36.279Z,8.33
2022-10-19T20:25:05.258Z,8.28
2022-10-19T20:27:37.551Z,8.29
2022-10-19T20:30:07.659Z,8.27
2022-10-19T20:32:36.569Z,8.20
2022-10-19T20:35:05.967Z,8.11
2022-10-19T20:37:34.822Z,8.07
2022-10-19T20:40:08.318Z,8.06
2022-10-19T20:42:37.893Z,8.03
2022-10-19T20:45:06.880Z,7.98
2022-10-19T20:47:35.857Z,7.96
2022-10-19T20:50:05.068Z,7.96
2022-10-19T20:52:34.683Z,7.96
2022-10-19T20:55:03.776Z,7.96
2022-10-19T20:57:32.849Z,7.96
2022-10-19T21:00:01.762Z,7.99
2022-10-19T21:02:30.734Z,7.97
2022-10-19T21:04:59.672Z,7.98
2022-10-19T21:07:28.601Z,8.00
2022-10-19T21:09:57.550Z,7.99
2022-10-19T21:12:28.827Z,7.98
2022-10-19T21:14:57.380Z,7.96
2022-10-19T21:17:26.952Z,7.96
2022-10-19T21:19:57.334Z,7.97
2022-10-19T21:22:27.055Z,7.99
2022-10-19T21:24:56.546Z,8.03
2022-10-19T21:27:25.545Z,8.00
2022-10-19T21:29:54.114Z,7.94
2022-10-19T21:32:23.031Z,7.95
2022-10-19T21:34:51.967Z,7.94
2022-10-19T21:37:20.920Z,7.95
2022-10-19T21:39:49.615Z,7.97
2022-10-19T21:42:18.685Z,8.00
2022-10-19T21:44:47.454Z,7.99
2022-10-19T21:47:15.866Z,7.94
2022-10-19T21:49:44.946Z,7.89
2022-10-19T21:52:16.127Z,7.90
2022-10-19T21:54:44.766Z,7.88
2022-10-19T21:57:13.651Z,7.84
2022-10-19T21:59:42.217Z,7.81
2022-10-19T22:02:11.609Z,7.81
2022-10-19T22:04:40.194Z,7.79
2022-10-19T22:07:09.122Z,7.77
2022-10-19T22:09:37.554Z,7.83
2022-10-19T22:12:05.958Z,7.88
2022-10-19T22:14:34.748Z,7.92
2022-10-19T22:17:03.847Z,7.94
2022-10-19T22:19:32.875Z,7.94
2022-10-19T22:22:02.098Z,7.95
2022-10-19T22:24:31.293Z,7.95
2022-10-19T22:27:00.158Z,7.95
2022-10-19T22:29:29.020Z,7.90
2022-10-19T22:31:57.932Z,7.90
2022-10-19T22:34:27.151Z,7.89
2022-10-19T22:36:56.308Z,7.80
2022-10-19T22:39:27.748Z,7.80
2022-10-19T22:41:57.199Z,7.80
2022-10-19T22:44:26.684Z,7.74
2022-10-19T22:46:55.560Z,7.70
2022-10-19T22:49:24.471Z,7.69
2022-10-19T22:51:53.633Z,7.58
2022-10-19T22:54:22.475Z,7.53
2022-10-19T22:56:51.550Z,7.54
2022-10-19T22:59:20.717Z,7.57
2022-10-19T23:01:49.744Z,7.56
2022-10-19T23:04:18.404Z,7.59
2022-10-19T23:06:47.545Z,7.56
2022-10-19T23:09:16.584Z,7.56
2022-10-19T23:11:45.676Z,7.56
2022-10-19T23:14:14.009Z,7.58
2022-10-19T23:16:43.082Z,7.61
2022-10-19T23:19:12.010Z,7.67
2022-10-19T23:21:40.336Z,7.69
2022-10-19T23:24:09.510Z,7.75
2022-10-19T23:26:38.261Z,7.79
2022-10-19T23:29:07.287Z,7.81
2022-10-19T23:31:36.243Z,7.79
2022-10-19T23:34:05.296Z,7.77
2022-10-19T23:36:34.187Z,7.77
2022-10-19T23:39:03.207Z,7.78
2022-10-19T23:41:32.332Z,7.75
2022-10-19T23:44:01.196Z,7.72
2022-10-19T23:46:30.274Z,7.68
2022-10-19T23:48:59.352Z,7.65
2022-10-19T23:51:28.219Z,7.63
2022-10-19T23:53:56.902Z,7.61
2022-10-19T23:56:26.764Z,7.57
2022-10-19T23:58:56.028Z,7.55
